sensor_id;sensor_type;location;lat;lon;timestamp;pressure;altitude;pressure_sealevel;temperature;humidity
49541;BME280;35432;43.566;1.398;2023-04-21T00:00:16;98980.56;;;15.85;51.92
49541;BME280;35432;43.566;1.398;2023-04-21T00:02:41;98976.41;;;15.79;51.51
49541;BME280;35432;43.566;1.398;2023-04-21T00:05:08;98972.22;;;15.73;51.89
49541;BME280;35432;43.566;1.398;2023-04-21T00:07:39;98970.75;;;15.68;52.38
49541;BME280;35432;43.566;1.398;2023-04-21T00:10:10;98962.97;;;15.63;52.78
49541;BME280;35432;43.566;1.398;2023-04-21T00:12:36;98965.78;;;15.60;52.36
49541;BME280;35432;43.566;1.398;2023-04-21T00:15:03;98960.53;;;15.58;52.15
49541;BME280;35432;43.566;1.398;2023-04-21T00:17:28;98955.44;;;15.54;52.57
49541;BME280;35432;43.566;1.398;2023-04-21T00:19:54;98959.16;;;15.49;52.64
49541;BME280;35432;43.566;1.398;2023-04-21T00:22:19;98961.81;;;15.49;52.89
49541;BME280;35432;43.566;1.398;2023-04-21T00:24:46;98958.31;;;15.49;52.90
49541;BME280;35432;43.566;1.398;2023-04-21T00:27:11;98956.59;;;15.48;53.08
49541;BME280;35432;43.566;1.398;2023-04-21T00:29:37;98952.28;;;15.45;53.25
49541;BME280;35432;43.566;1.398;2023-04-21T00:32:05;98957.53;;;15.47;52.99
49541;BME280;35432;43.566;1.398;2023-04-21T00:34:33;98956.78;;;15.43;53.23
49541;BME280;35432;43.566;1.398;2023-04-21T00:36:58;98970.97;;;15.42;53.31
49541;BME280;35432;43.566;1.398;2023-04-21T00:39:24;98974.63;;;15.40;53.20
49541;BME280;35432;43.566;1.398;2023-04-21T00:41:50;98968.38;;;15.41;53.43
49541;BME280;35432;43.566;1.398;2023-04-21T00:44:15;98967.53;;;15.40;53.58
49541;BME280;35432;43.566;1.398;2023-04-21T00:46:41;98971.97;;;15.40;53.33
49541;BME280;35432;43.566;1.398;2023-04-21T00:49:07;98971.47;;;15.31;53.88
49541;BME280;35432;43.566;1.398;2023-04-21T00:51:34;98973.31;;;15.29;53.72
49541;BME280;35432;43.566;1.398;2023-04-21T00:54:04;98982.22;;;15.28;54.25
49541;BME280;35432;43.566;1.398;2023-04-21T00:56:32;98983.19;;;15.26;54.09
49541;BME280;35432;43.566;1.398;2023-04-21T00:58:58;98973.53;;;15.25;53.88
49541;BME280;35432;43.566;1.398;2023-04-21T01:01:25;98976.31;;;15.21;54.42
49541;BME280;35432;43.566;1.398;2023-04-21T01:03:51;98967.56;;;15.19;54.15
49541;BME280;35432;43.566;1.398;2023-04-21T01:06:17;98970.16;;;15.21;54.15
49541;BME280;35432;43.566;1.398;2023-04-21T01:08:45;98967.63;;;15.18;54.67
49541;BME280;35432;43.566;1.398;2023-04-21T01:11:11;98971.28;;;15.15;54.32
49541;BME280;35432;43.566;1.398;2023-04-21T01:13:38;98969.56;;;15.14;54.40
49541;BME280;35432;43.566;1.398;2023-04-21T01:16:04;98971.28;;;15.15;54.29
49541;BME280;35432;43.566;1.398;2023-04-21T01:18:30;98967.84;;;15.13;54.51
49541;BME280;35432;43.566;1.398;2023-04-21T01:20:55;98973.53;;;15.04;54.58
49541;BME280;35432;43.566;1.398;2023-04-21T01:23:22;98966.91;;;14.93;54.95
49541;BME280;35432;43.566;1.398;2023-04-21T01:25:49;98972.28;;;14.71;56.29
49541;BME280;35432;43.566;1.398;2023-04-21T01:28:20;98975.22;;;14.63;56.78
49541;BME280;35432;43.566;1.398;2023-04-21T01:30:46;98970.28;;;14.54;56.52
49541;BME280;35432;43.566;1.398;2023-04-21T01:33:11;98980.28;;;14.47;56.48
49541;BME280;35432;43.566;1.398;2023-04-21T01:35:37;98985.59;;;14.47;57.02
49541;BME280;35432;43.566;1.398;2023-04-21T01:38:02;98982.53;;;14.34;57.80
49541;BME280;35432;43.566;1.398;2023-04-21T01:40:28;98978.69;;;14.21;58.07
49541;BME280;35432;43.566;1.398;2023-04-21T01:42:53;98982.63;;;14.11;58.39
49541;BME280;35432;43.566;1.398;2023-04-21T01:45:18;98982.22;;;13.98;58.86
49541;BME280;35432;43.566;1.398;2023-04-21T01:47:44;98979.88;;;13.90;59.35
49541;BME280;35432;43.566;1.398;2023-04-21T01:50:09;98974.75;;;13.85;59.29
49541;BME280;35432;43.566;1.398;2023-04-21T01:52:35;98983.66;;;13.83;59.56
49541;BME280;35432;43.566;1.398;2023-04-21T01:55:01;98980.63;;;13.70;60.06
49541;BME280;35432;43.566;1.398;2023-04-21T01:57:26;98984.47;;;13.61;60.63
49541;BME280;35432;43.566;1.398;2023-04-21T01:59:51;98975.97;;;13.53;60.87
49541;BME280;35432;43.566;1.398;2023-04-21T02:02:17;98989.28;;;13.51;60.31
49541;BME280;35432;43.566;1.398;2023-04-21T02:04:42;98988.41;;;13.51;60.37
49541;BME280;35432;43.566;1.398;2023-04-21T02:07:08;98990.44;;;13.42;60.82
49541;BME280;35432;43.566;1.398;2023-04-21T02:09:33;98989.66;;;13.39;61.64
49541;BME280;35432;43.566;1.398;2023-04-21T02:11:58;98994.19;;;13.35;61.22
49541;BME280;35432;43.566;1.398;2023-04-21T02:14:24;98994.28;;;13.33;61.39
49541;BME280;35432;43.566;1.398;2023-04-21T02:16:50;98997.88;;;13.31;61.67
49541;BME280;35432;43.566;1.398;2023-04-21T02:19:15;99001.59;;;13.25;62.31
49541;BME280;35432;43.566;1.398;2023-04-21T02:21:41;98998.25;;;13.20;62.40
49541;BME280;35432;43.566;1.398;2023-04-21T02:24:06;99005.63;;;13.10;63.34
49541;BME280;35432;43.566;1.398;2023-04-21T02:26:31;99009.09;;;13.12;62.94
49541;BME280;35432;43.566;1.398;2023-04-21T02:28:57;99000.25;;;13.13;62.63
49541;BME280;35432;43.566;1.398;2023-04-21T02:31:22;99001.22;;;13.11;63.27
49541;BME280;35432;43.566;1.398;2023-04-21T02:33:48;99003.06;;;13.09;63.34
49541;BME280;35432;43.566;1.398;2023-04-21T02:36:13;99005.63;;;13.10;63.51
49541;BME280;35432;43.566;1.398;2023-04-21T02:38:38;99005.63;;;13.10;62.77
49541;BME280;35432;43.566;1.398;2023-04-21T02:41:04;99008.25;;;13.12;63.48
49541;BME280;35432;43.566;1.398;2023-04-21T02:43:29;99017.94;;;13.11;63.30
49541;BME280;35432;43.566;1.398;2023-04-21T02:45:56;99006.56;;;13.09;63.61
49541;BME280;35432;43.566;1.398;2023-04-21T02:48:21;99009.31;;;13.06;64.12
49541;BME280;35432;43.566;1.398;2023-04-21T02:50:50;99004.13;;;13.03;64.91
49541;BME280;35432;43.566;1.398;2023-04-21T02:53:18;99006.88;;;13.00;64.61
49541;BME280;35432;43.566;1.398;2023-04-21T02:55:43;99007.00;;;12.97;65.17
49541;BME280;35432;43.566;1.398;2023-04-21T02:58:08;98999.91;;;12.97;64.31
49541;BME280;35432;43.566;1.398;2023-04-21T03:00:34;98998.19;;;12.96;64.20
49541;BME280;35432;43.566;1.398;2023-04-21T03:02:59;98995.56;;;12.96;64.35
49541;BME280;35432;43.566;1.398;2023-04-21T03:05:25;98995.50;;;12.98;64.77
49541;BME280;35432;43.566;1.398;2023-04-21T03:07:51;98993.72;;;12.98;64.50
49541;BME280;35432;43.566;1.398;2023-04-21T03:10:16;99004.56;;;12.90;65.16
49541;BME280;35432;43.566;1.398;2023-04-21T03:12:41;99005.69;;;12.83;65.41
49541;BME280;35432;43.566;1.398;2023-04-21T03:15:07;99003.25;;;12.77;65.90
49541;BME280;35432;43.566;1.398;2023-04-21T03:17:32;99005.78;;;12.80;65.49
49541;BME280;35432;43.566;1.398;2023-04-21T03:19:58;98999.81;;;12.75;66.20
49541;BME280;35432;43.566;1.398;2023-04-21T03:22:23;99000.59;;;12.77;66.08
49541;BME280;35432;43.566;1.398;2023-04-21T03:24:49;99012.09;;;12.76;66.15
49541;BME280;35432;43.566;1.398;2023-04-21T03:27:14;99011.41;;;12.69;66.38
49541;BME280;35432;43.566;1.398;2023-04-21T03:29:39;99011.41;;;12.69;66.14
49541;BME280;35432;43.566;1.398;2023-04-21T03:32:05;99021.03;;;12.72;66.12
49541;BME280;35432;43.566;1.398;2023-04-21T03:34:30;99020.41;;;12.63;66.01
49541;BME280;35432;43.566;1.398;2023-04-21T03:36:56;99021.13;;;12.69;66.13
49541;BME280;35432;43.566;1.398;2023-04-21T03:39:21;99022.97;;;12.67;66.81
49541;BME280;35432;43.566;1.398;2023-04-21T03:41:46;99012.31;;;12.70;66.37
49541;BME280;35432;43.566;1.398;2023-04-21T03:44:12;99017.72;;;12.65;66.63
49541;BME280;35432;43.566;1.398;2023-04-21T03:46:37;99019.66;;;12.60;66.84
49541;BME280;35432;43.566;1.398;2023-04-21T03:49:03;99018.78;;;12.59;66.46
49541;BME280;35432;43.566;1.398;2023-04-21T03:51:28;99021.53;;;12.56;66.68
49541;BME280;35432;43.566;1.398;2023-04-21T03:53:53;99025.19;;;12.52;67.54
49541;BME280;35432;43.566;1.398;2023-04-21T03:56:19;99023.47;;;12.51;67.25
49541;BME280;35432;43.566;1.398;2023-04-21T03:58:44;99024.41;;;12.48;67.42
49541;BME280;35432;43.566;1.398;2023-04-21T04:01:10;99022.75;;;12.46;67.54
49541;BME280;35432;43.566;1.398;2023-04-21T04:03:35;99032.41;;;12.47;67.39
49541;BME280;35432;43.566;1.398;2023-04-21T04:06:01;99029.84;;;12.44;67.65
49541;BME280;35432;43.566;1.398;2023-04-21T04:08:28;99023.84;;;12.39;67.89
49541;BME280;35432;43.566;1.398;2023-04-21T04:10:54;99031.75;;;12.39;68.04
49541;BME280;35432;43.566;1.398;2023-04-21T04:13:20;99035.31;;;12.38;67.86
49541;BME280;35432;43.566;1.398;2023-04-21T04:15:46;99028.25;;;12.38;67.68
49541;BME280;35432;43.566;1.398;2023-04-21T04:18:12;99028.28;;;12.37;67.88
49541;BME280;35432;43.566;1.398;2023-04-21T04:20:37;99032.75;;;12.34;68.49
49541;BME280;35432;43.566;1.398;2023-04-21T04:23:03;99039.06;;;12.30;68.21
49541;BME280;35432;43.566;1.398;2023-04-21T04:25:29;99038.25;;;12.28;68.07
49541;BME280;35432;43.566;1.398;2023-04-21T04:27:54;99034.78;;;12.26;68.26
49541;BME280;35432;43.566;1.398;2023-04-21T04:30:19;99029.50;;;12.26;68.03
49541;BME280;35432;43.566;1.398;2023-04-21T04:32:45;99030.63;;;12.19;68.61
49541;BME280;35432;43.566;1.398;2023-04-21T04:35:11;99030.75;;;12.14;68.59
49541;BME280;35432;43.566;1.398;2023-04-21T04:37:38;99031.78;;;12.09;68.85
49541;BME280;35432;43.566;1.398;2023-04-21T04:40:06;99037.13;;;12.07;68.90
49541;BME280;35432;43.566;1.398;2023-04-21T04:42:36;99030.94;;;12.08;68.49
49541;BME280;35432;43.566;1.398;2023-04-21T04:45:04;99029.13;;;12.10;68.79
49541;BME280;35432;43.566;1.398;2023-04-21T04:47:30;99031.78;;;12.09;68.71
49541;BME280;35432;43.566;1.398;2023-04-21T04:49:55;99026.41;;;12.12;68.57
49541;BME280;35432;43.566;1.398;2023-04-21T04:52:21;99025.56;;;12.11;68.73
49541;BME280;35432;43.566;1.398;2023-04-21T04:54:46;99031.00;;;12.05;69.41
49541;BME280;35432;43.566;1.398;2023-04-21T04:57:11;99033.66;;;12.05;69.10
49541;BME280;35432;43.566;1.398;2023-04-21T04:59:37;99033.75;;;12.02;69.44
49541;BME280;35432;43.566;1.398;2023-04-21T05:02:02;99032.91;;;12.00;69.44
49541;BME280;35432;43.566;1.398;2023-04-21T05:04:28;99033.78;;;12.00;69.17
49541;BME280;35432;43.566;1.398;2023-04-21T05:06:53;99034.69;;;11.99;69.48
49541;BME280;35432;43.566;1.398;2023-04-21T05:09:19;99031.16;;;11.99;69.31
49541;BME280;35432;43.566;1.398;2023-04-21T05:11:45;99039.09;;;11.99;69.57
49541;BME280;35432;43.566;1.398;2023-04-21T05:14:10;99033.78;;;12.00;69.03
49541;BME280;35432;43.566;1.398;2023-04-21T05:16:35;99033.72;;;12.03;68.81
49541;BME280;35432;43.566;1.398;2023-04-21T05:19:02;99040.53;;;12.11;68.29
49541;BME280;35432;43.566;1.398;2023-04-21T05:21:27;99040.44;;;12.14;68.08
49541;BME280;35432;43.566;1.398;2023-04-21T05:23:57;99045.69;;;12.15;68.49
49541;BME280;35432;43.566;1.398;2023-04-21T05:26:27;99038.75;;;12.11;69.06
49541;BME280;35432;43.566;1.398;2023-04-21T05:28:56;99047.63;;;12.09;69.02
49541;BME280;35432;43.566;1.398;2023-04-21T05:31:22;99048.34;;;12.14;68.76
49541;BME280;35432;43.566;1.398;2023-04-21T05:33:47;99050.88;;;12.17;68.36
49541;BME280;35432;43.566;1.398;2023-04-21T05:36:13;99053.38;;;12.23;68.60
49541;BME280;35432;43.566;1.398;2023-04-21T05:38:38;99052.44;;;12.24;68.67
49541;BME280;35432;43.566;1.398;2023-04-21T05:41:04;99057.53;;;12.30;68.29
49541;BME280;35432;43.566;1.398;2023-04-21T05:43:30;99055.81;;;12.29;68.86
49541;BME280;35432;43.566;1.398;2023-04-21T05:46:02;99061.00;;;12.32;68.53
49541;BME280;35432;43.566;1.398;2023-04-21T05:48:28;99057.44;;;12.33;68.62
49541;BME280;35432;43.566;1.398;2023-04-21T05:50:54;99056.09;;;12.48;67.94
49541;BME280;35432;43.566;1.398;2023-04-21T05:53:20;99059.28;;;12.60;67.67
49541;BME280;35432;43.566;1.398;2023-04-21T05:55:47;99055.16;;;12.78;66.95
49541;BME280;35432;43.566;1.398;2023-04-21T05:58:13;99061.50;;;12.99;66.55
49541;BME280;35432;43.566;1.398;2023-04-21T06:00:38;99063.09;;;13.05;66.81
49541;BME280;35432;43.566;1.398;2023-04-21T06:03:04;99061.78;;;13.18;66.58
49541;BME280;35432;43.566;1.398;2023-04-21T06:05:29;99051.94;;;13.22;66.50
49541;BME280;35432;43.566;1.398;2023-04-21T06:07:55;99059.38;;;13.36;65.97
49541;BME280;35432;43.566;1.398;2023-04-21T06:10:20;99059.75;;;13.52;65.48
49541;BME280;35432;43.566;1.398;2023-04-21T06:12:46;99063.63;;;13.67;65.61
49541;BME280;35432;43.566;1.398;2023-04-21T06:15:11;99066.84;;;13.75;65.02
49541;BME280;35432;43.566;1.398;2023-04-21T06:17:36;99068.13;;;13.89;64.72
49541;BME280;35432;43.566;1.398;2023-04-21T06:20:02;99075.59;;;14.01;64.39
49541;BME280;35432;43.566;1.398;2023-04-21T06:22:28;99071.78;;;14.09;64.33
49541;BME280;35432;43.566;1.398;2023-04-21T06:24:53;99070.06;;;14.07;64.34
49541;BME280;35432;43.566;1.398;2023-04-21T06:27:19;99067.09;;;14.17;64.14
49541;BME280;35432;43.566;1.398;2023-04-21T06:29:44;99068.41;;;14.29;63.87
49541;BME280;35432;43.566;1.398;2023-04-21T06:32:10;99074.22;;;14.39;63.76
49541;BME280;35432;43.566;1.398;2023-04-21T06:34:36;99073.28;;;14.40;63.64
49541;BME280;35432;43.566;1.398;2023-04-21T06:37:02;99068.03;;;14.38;63.82
49541;BME280;35432;43.566;1.398;2023-04-21T06:39:27;99068.34;;;14.30;63.89
49541;BME280;35432;43.566;1.398;2023-04-21T06:41:53;99064.09;;;14.26;64.36
49541;BME280;35432;43.566;1.398;2023-04-21T06:44:19;99063.03;;;14.30;64.44
49541;BME280;35432;43.566;1.398;2023-04-21T06:46:45;99064.53;;;14.38;64.24
49541;BME280;35432;43.566;1.398;2023-04-21T06:49:11;99073.78;;;14.49;63.82
49541;BME280;35432;43.566;1.398;2023-04-21T06:51:36;99063.69;;;14.59;63.85
49541;BME280;35432;43.566;1.398;2023-04-21T06:54:02;99073.03;;;14.68;63.70
49541;BME280;35432;43.566;1.398;2023-04-21T06:56:28;99061.25;;;14.77;63.60
49541;BME280;35432;43.566;1.398;2023-04-21T06:58:54;99063.72;;;14.82;63.59
49541;BME280;35432;43.566;1.398;2023-04-21T07:01:20;99058.09;;;14.89;63.36
49541;BME280;35432;43.566;1.398;2023-04-21T07:03:45;99064.19;;;14.91;63.36
49541;BME280;35432;43.566;1.398;2023-04-21T07:06:11;99056.41;;;15.09;62.96
49541;BME280;35432;43.566;1.398;2023-04-21T07:08:37;99049.38;;;15.29;62.62
49541;BME280;35432;43.566;1.398;2023-04-21T07:11:02;99048.66;;;15.46;62.22
49541;BME280;35432;43.566;1.398;2023-04-21T07:13:28;99047.94;;;15.61;62.08
49541;BME280;35432;43.566;1.398;2023-04-21T07:15:53;99044.97;;;15.69;61.70
49541;BME280;35432;43.566;1.398;2023-04-21T07:18:19;99052.38;;;15.82;61.42
49541;BME280;35432;43.566;1.398;2023-04-21T07:20:44;99057.16;;;15.94;61.34
49541;BME280;35432;43.566;1.398;2023-04-21T07:23:10;99051.16;;;16.10;60.97
49541;BME280;35432;43.566;1.398;2023-04-21T07:25:35;99051.34;;;16.24;60.82
49541;BME280;35432;43.566;1.398;2023-04-21T07:28:01;99051.78;;;16.34;60.34
49541;BME280;35432;43.566;1.398;2023-04-21T07:30:28;99042.97;;;16.51;59.81
49541;BME280;35432;43.566;1.398;2023-04-21T07:32:54;99048.03;;;16.57;59.56
49541;BME280;35432;43.566;1.398;2023-04-21T07:35:20;99047.66;;;16.65;59.32
49541;BME280;35432;43.566;1.398;2023-04-21T07:37:45;99035.22;;;16.65;59.76
49541;BME280;35432;43.566;1.398;2023-04-21T07:40:11;99039.47;;;16.87;59.02
49541;BME280;35432;43.566;1.398;2023-04-21T07:42:37;99031.53;;;17.05;58.96
49541;BME280;35432;43.566;1.398;2023-04-21T07:45:03;99029.66;;;17.25;58.36
49541;BME280;35432;43.566;1.398;2023-04-21T07:47:28;99031.34;;;17.43;57.80
49541;BME280;35432;43.566;1.398;2023-04-21T07:49:54;99034.66;;;17.48;57.85
49541;BME280;35432;43.566;1.398;2023-04-21T07:52:20;99031.59;;;17.72;57.45
49541;BME280;35432;43.566;1.398;2023-04-21T07:54:45;99031.22;;;17.96;56.95
49541;BME280;35432;43.566;1.398;2023-04-21T07:57:11;99037.38;;;18.30;56.35
49541;BME280;35432;43.566;1.398;2023-04-21T07:59:36;99038.41;;;18.44;55.59
49541;BME280;35432;43.566;1.398;2023-04-21T08:02:02;99023.97;;;18.48;55.43
49541;BME280;35432;43.566;1.398;2023-04-21T08:04:27;99028.25;;;18.50;55.43
49541;BME280;35432;43.566;1.398;2023-04-21T08:06:52;99020.59;;;18.60;54.85
49541;BME280;35432;43.566;1.398;2023-04-21T08:09:18;99022.97;;;18.81;54.24
49541;BME280;35432;43.566;1.398;2023-04-21T08:11:43;99017.44;;;18.84;54.61
49541;BME280;35432;43.566;1.398;2023-04-21T08:14:08;99008.91;;;19.10;54.11
49541;BME280;35432;43.566;1.398;2023-04-21T08:16:39;99004.38;;;19.41;53.36
49541;BME280;35432;43.566;1.398;2023-04-21T08:19:07;99008.50;;;19.46;52.46
49541;BME280;35432;43.566;1.398;2023-04-21T08:21:32;99013.25;;;19.41;52.54
49541;BME280;35432;43.566;1.398;2023-04-21T08:23:58;99006.00;;;19.43;52.36
49541;BME280;35432;43.566;1.398;2023-04-21T08:26:23;99011.03;;;19.48;52.65
49541;BME280;35432;43.566;1.398;2023-04-21T08:28:50;99003.03;;;19.48;52.22
49541;BME280;35432;43.566;1.398;2023-04-21T08:31:17;99002.09;;;19.63;52.26
49541;BME280;35432;43.566;1.398;2023-04-21T08:33:42;98988.63;;;19.79;52.19
49541;BME280;35432;43.566;1.398;2023-04-21T08:36:08;98988.16;;;19.87;51.70
49541;BME280;35432;43.566;1.398;2023-04-21T08:38:34;98985.78;;;19.97;51.77
49541;BME280;35432;43.566;1.398;2023-04-21T08:41:00;98982.91;;;20.15;51.16
49541;BME280;35432;43.566;1.398;2023-04-21T08:43:27;98984.22;;;20.22;50.81
49541;BME280;35432;43.566;1.398;2023-04-21T08:45:53;98979.84;;;20.21;50.09
49541;BME280;35432;43.566;1.398;2023-04-21T08:48:20;98976.34;;;20.06;50.13
49541;BME280;35432;43.566;1.398;2023-04-21T08:50:48;98979.56;;;20.11;50.55
49541;BME280;35432;43.566;1.398;2023-04-21T08:53:15;98984.78;;;20.27;50.14
49541;BME280;35432;43.566;1.398;2023-04-21T08:55:41;98988.00;;;20.32;49.84
49541;BME280;35432;43.566;1.398;2023-04-21T08:58:06;98990.31;;;20.24;50.06
49541;BME280;35432;43.566;1.398;2023-04-21T09:00:36;98994.84;;;20.36;49.84
49541;BME280;35432;43.566;1.398;2023-04-21T09:03:01;98994.47;;;20.43;49.03
49541;BME280;35432;43.566;1.398;2023-04-21T09:05:30;98991.94;;;20.54;49.15
49541;BME280;35432;43.566;1.398;2023-04-21T09:08:10;98988.09;;;20.58;48.96
49541;BME280;35432;43.566;1.398;2023-04-21T09:10:45;98987.78;;;20.63;49.45
49541;BME280;35432;43.566;1.398;2023-04-21T09:13:11;98991.13;;;20.67;49.48
49541;BME280;35432;43.566;1.398;2023-04-21T09:15:40;98984.09;;;20.78;49.07
49541;BME280;35432;43.566;1.398;2023-04-21T09:18:10;98985.25;;;21.02;48.56
49541;BME280;35432;43.566;1.398;2023-04-21T09:20:37;98983.75;;;21.11;48.73
49541;BME280;35432;43.566;1.398;2023-04-21T09:23:05;98978.31;;;21.25;48.49
49541;BME280;35432;43.566;1.398;2023-04-21T09:25:31;98979.28;;;21.24;48.01
49541;BME280;35432;43.566;1.398;2023-04-21T09:27:59;98973.19;;;21.35;47.73
49541;BME280;35432;43.566;1.398;2023-04-21T09:30:24;98978.41;;;21.49;47.61
49541;BME280;35432;43.566;1.398;2023-04-21T09:32:55;98966.53;;;21.67;47.35
49541;BME280;35432;43.566;1.398;2023-04-21T09:35:21;98972.59;;;21.82;46.74
49541;BME280;35432;43.566;1.398;2023-04-21T09:37:46;98975.94;;;21.85;46.17
49541;BME280;35432;43.566;1.398;2023-04-21T09:40:13;98974.41;;;21.94;45.60
49541;BME280;35432;43.566;1.398;2023-04-21T09:42:40;98964.22;;;21.99;45.46
49541;BME280;35432;43.566;1.398;2023-04-21T09:45:07;98970.22;;;22.03;45.18
49541;BME280;35432;43.566;1.398;2023-04-21T09:47:38;98974.72;;;22.02;45.16
49541;BME280;35432;43.566;1.398;2023-04-21T09:50:06;98977.47;;;22.14;45.35
49541;BME280;35432;43.566;1.398;2023-04-21T09:52:32;98967.22;;;22.07;45.12
49541;BME280;35432;43.566;1.398;2023-04-21T09:55:00;98972.38;;;21.98;45.07
49541;BME280;35432;43.566;1.398;2023-04-21T09:57:31;98964.81;;;22.16;45.48
49541;BME280;35432;43.566;1.398;2023-04-21T10:00:05;98965.03;;;22.13;46.01
49541;BME280;35432;43.566;1.398;2023-04-21T10:02:34;98960.78;;;22.34;45.27
49541;BME280;35432;43.566;1.398;2023-04-21T10:05:04;98963.72;;;22.56;44.65
49541;BME280;35432;43.566;1.398;2023-04-21T10:07:31;98961.19;;;22.65;44.62
49541;BME280;35432;43.566;1.398;2023-04-21T10:09:58;98967.13;;;22.82;44.60
49541;BME280;35432;43.566;1.398;2023-04-21T10:12:25;98959.72;;;22.97;44.04
49541;BME280;35432;43.566;1.398;2023-04-21T10:14:55;98967.28;;;23.03;42.52
49541;BME280;35432;43.566;1.398;2023-04-21T10:17:25;98962.03;;;23.02;42.98
49541;BME280;35432;43.566;1.398;2023-04-21T10:19:56;98958.41;;;23.14;42.44
49541;BME280;35432;43.566;1.398;2023-04-21T10:22:29;98954.63;;;23.17;42.57
49541;BME280;35432;43.566;1.398;2023-04-21T10:24:56;98962.84;;;23.27;42.49
49541;BME280;35432;43.566;1.398;2023-04-21T10:27:38;98957.13;;;23.31;41.97
49541;BME280;35432;43.566;1.398;2023-04-21T10:32:43;98949.44;;;23.49;42.32
49541;BME280;35432;43.566;1.398;2023-04-21T10:35:13;98946.50;;;23.64;41.69
49541;BME280;35432;43.566;1.398;2023-04-21T10:37:40;98953.81;;;23.85;41.65
49541;BME280;35432;43.566;1.398;2023-04-21T10:42:54;98946.22;;;24.13;40.90
49541;BME280;35432;43.566;1.398;2023-04-21T10:45:24;98945.72;;;24.19;41.21
49541;BME280;35432;43.566;1.398;2023-04-21T10:47:51;98947.16;;;24.23;41.10
49541;BME280;35432;43.566;1.398;2023-04-21T10:52:50;98927.88;;;24.50;40.59
49541;BME280;35432;43.566;1.398;2023-04-21T10:55:17;98934.97;;;24.19;41.22
49541;BME280;35432;43.566;1.398;2023-04-21T10:57:43;98937.75;;;24.29;40.90
49541;BME280;35432;43.566;1.398;2023-04-21T11:00:10;98932.72;;;24.35;40.81
49541;BME280;35432;43.566;1.398;2023-04-21T11:02:38;98929.03;;;24.36;40.38
49541;BME280;35432;43.566;1.398;2023-04-21T11:05:04;98925.34;;;24.49;40.25
49541;BME280;35432;43.566;1.398;2023-04-21T11:07:30;98929.69;;;24.61;39.91
49541;BME280;35432;43.566;1.398;2023-04-21T11:12:26;98916.19;;;24.73;40.26
49541;BME280;35432;43.566;1.398;2023-04-21T11:14:52;98918.88;;;24.94;39.99
49541;BME280;35432;43.566;1.398;2023-04-21T11:17:18;98914.09;;;24.98;40.28
49541;BME280;35432;43.566;1.398;2023-04-21T11:19:54;98911.66;;;25.16;38.95
49541;BME280;35432;43.566;1.398;2023-04-21T11:22:22;98919.63;;;25.27;39.09
49541;BME280;35432;43.566;1.398;2023-04-21T11:24:49;98914.13;;;25.29;38.70
49541;BME280;35432;43.566;1.398;2023-04-21T11:27:15;98913.19;;;25.40;38.62
49541;BME280;35432;43.566;1.398;2023-04-21T11:29:44;98919.13;;;25.43;37.88
49541;BME280;35432;43.566;1.398;2023-04-21T11:32:10;98915.94;;;25.49;37.52
49541;BME280;35432;43.566;1.398;2023-04-21T11:34:36;98908.22;;;25.45;38.19
49541;BME280;35432;43.566;1.398;2023-04-21T11:37:02;98916.66;;;25.30;38.17
49541;BME280;35432;43.566;1.398;2023-04-21T11:39:28;98911.38;;;25.19;38.38
49541;BME280;35432;43.566;1.398;2023-04-21T11:41:53;98914.13;;;25.29;37.57
49541;BME280;35432;43.566;1.398;2023-04-21T11:44:39;98904.81;;;25.12;37.65
49541;BME280;35432;43.566;1.398;2023-04-21T11:47:19;98905.31;;;25.27;37.41
49541;BME280;35432;43.566;1.398;2023-04-21T11:49:46;98896.75;;;25.43;37.20
49541;BME280;35432;43.566;1.398;2023-04-21T11:52:22;98902.09;;;25.33;37.15
49541;BME280;35432;43.566;1.398;2023-04-21T11:54:53;98885.66;;;25.36;37.61
49541;BME280;35432;43.566;1.398;2023-04-21T11:57:19;98889.06;;;25.38;37.87
49541;BME280;35432;43.566;1.398;2023-04-21T11:59:45;98887.50;;;25.35;38.27
49541;BME280;35432;43.566;1.398;2023-04-21T12:02:12;98895.59;;;25.35;37.99
49541;BME280;35432;43.566;1.398;2023-04-21T12:04:56;98886.78;;;25.43;37.57
49541;BME280;35432;43.566;1.398;2023-04-21T12:07:21;98882.06;;;25.57;37.52
49541;BME280;35432;43.566;1.398;2023-04-21T12:09:50;98880.38;;;25.56;37.69
49541;BME280;35432;43.566;1.398;2023-04-21T12:12:16;98893.41;;;25.50;37.36
49541;BME280;35432;43.566;1.398;2023-04-21T12:14:43;98878.81;;;25.32;37.76
49541;BME280;35432;43.566;1.398;2023-04-21T12:17:09;98889.72;;;25.30;38.24
49541;BME280;35432;43.566;1.398;2023-04-21T12:19:38;98895.28;;;25.07;38.70
49541;BME280;35432;43.566;1.398;2023-04-21T12:24:33;98883.81;;;25.36;38.13
49541;BME280;35432;43.566;1.398;2023-04-21T12:26:59;98886.44;;;25.48;38.26
49541;BME280;35432;43.566;1.398;2023-04-21T12:29:24;98888.53;;;25.44;38.69
49541;BME280;35432;43.566;1.398;2023-04-21T12:31:50;98881.22;;;25.56;38.46
49541;BME280;35432;43.566;1.398;2023-04-21T12:34:15;98885.88;;;25.54;38.12
49541;BME280;35432;43.566;1.398;2023-04-21T12:36:40;98881.22;;;25.66;37.58
49541;BME280;35432;43.566;1.398;2023-04-21T12:39:06;98872.13;;;25.47;37.89
49541;BME280;35432;43.566;1.398;2023-04-21T12:41:32;98871.84;;;25.50;38.11
49541;BME280;35432;43.566;1.398;2023-04-21T12:43:58;98868.47;;;25.68;37.46
49541;BME280;35432;43.566;1.398;2023-04-21T12:46:24;98864.53;;;25.72;37.38
49541;BME280;35432;43.566;1.398;2023-04-21T12:48:50;98864.81;;;25.69;37.88
49541;BME280;35432;43.566;1.398;2023-04-21T12:51:16;98865.06;;;25.66;37.80
49541;BME280;35432;43.566;1.398;2023-04-21T12:53:42;98864.06;;;25.67;37.23
49541;BME280;35432;43.566;1.398;2023-04-21T12:56:07;98866.50;;;25.70;37.69
49541;BME280;35432;43.566;1.398;2023-04-21T12:58:33;98865.34;;;25.32;37.57
49541;BME280;35432;43.566;1.398;2023-04-21T13:00:58;98873.44;;;25.32;37.94
49541;BME280;35432;43.566;1.398;2023-04-21T13:03:24;98857.09;;;25.23;38.02
49541;BME280;35432;43.566;1.398;2023-04-21T13:05:49;98867.78;;;25.35;38.40
49541;BME280;35432;43.566;1.398;2023-04-21T13:08:15;98859.66;;;25.66;38.31